sensor_id;sensor_type;location;lat;lon;timestamp;P1;durP1;ratioP1;P2;durP2;ratioP2
25073;SDS011;13066;52.042;5.648;2023-04-19T00:00:02;11.90;;;8.38;;
25073;SDS011;13066;52.042;5.648;2023-04-19T00:02:35;11.85;;;8.10;;
25073;SDS011;13066;52.042;5.648;2023-04-19T00:05:05;18.40;;;8.93;;
25073;SDS011;13066;52.042;5.648;2023-04-19T00:07:34;14.50;;;8.60;;
25073;SDS011;13066;52.042;5.648;2023-04-19T00:10:02;12.55;;;8.82;;
25073;SDS011;13066;52.042;5.648;2023-04-19T00:12:30;12.95;;;7.75;;
25073;SDS011;13066;52.042;5.648;2023-04-19T00:14:58;12.52;;;8.38;;
25073;SDS011;13066;52.042;5.648;2023-04-19T00:17:26;18.02;;;8.90;;
25073;SDS011;13066;52.042;5.648;2023-04-19T00:19:54;12.95;;;8.93;;
25073;SDS011;13066;52.042;5.648;2023-04-19T00:22:24;12.43;;;8.27;;
25073;SDS011;13066;52.042;5.648;2023-04-19T00:24:52;12.98;;;8.57;;
25073;SDS011;13066;52.042;5.648;2023-04-19T00:27:20;15.55;;;9.30;;
25073;SDS011;13066;52.042;5.648;2023-04-19T00:29:48;12.77;;;9.15;;
25073;SDS011;13066;52.042;5.648;2023-04-19T00:32:16;13.50;;;8.45;;
25073;SDS011;13066;52.042;5.648;2023-04-19T00:34:44;11.35;;;8.75;;
25073;SDS011;13066;52.042;5.648;2023-04-19T00:37:12;16.42;;;8.27;;
25073;SDS011;13066;52.042;5.648;2023-04-19T00:39:42;12.23;;;9.05;;
25073;SDS011;13066;52.042;5.648;2023-04-19T00:42:10;14.00;;;8.20;;
25073;SDS011;13066;52.042;5.648;2023-04-19T00:44:38;15.13;;;9.38;;
25073;SDS011;13066;52.042;5.648;2023-04-19T00:47:07;11.43;;;8.77;;
25073;SDS011;13066;52.042;5.648;2023-04-19T00:49:35;12.70;;;8.30;;
25073;SDS011;13066;52.042;5.648;2023-04-19T00:52:04;18.30;;;8.13;;
25073;SDS011;13066;52.042;5.648;2023-04-19T00:54:35;14.88;;;8.52;;
25073;SDS011;13066;52.042;5.648;2023-04-19T00:57:05;14.80;;;9.52;;
25073;SDS011;13066;52.042;5.648;2023-04-19T00:59:33;17.25;;;8.98;;
25073;SDS011;13066;52.042;5.648;2023-04-19T01:02:02;13.32;;;8.85;;
25073;SDS011;13066;52.042;5.648;2023-04-19T01:04:30;15.93;;;9.75;;
25073;SDS011;13066;52.042;5.648;2023-04-19T01:06:59;16.60;;;9.65;;
25073;SDS011;13066;52.042;5.648;2023-04-19T01:09:28;18.83;;;8.98;;
25073;SDS011;13066;52.042;5.648;2023-04-19T01:11:56;16.95;;;8.75;;
25073;SDS011;13066;52.042;5.648;2023-04-19T01:14:25;13.25;;;9.27;;
25073;SDS011;13066;52.042;5.648;2023-04-19T01:16:53;11.38;;;8.68;;
25073;SDS011;13066;52.042;5.648;2023-04-19T01:19:21;14.60;;;9.35;;
25073;SDS011;13066;52.042;5.648;2023-04-19T01:21:49;14.73;;;9.15;;
25073;SDS011;13066;52.042;5.648;2023-04-19T01:24:19;12.60;;;9.48;;
25073;SDS011;13066;52.042;5.648;2023-04-19T01:26:48;15.20;;;8.90;;
25073;SDS011;13066;52.042;5.648;2023-04-19T01:29:16;15.23;;;9.48;;
25073;SDS011;13066;52.042;5.648;2023-04-19T01:31:44;14.30;;;9.05;;
25073;SDS011;13066;52.042;5.648;2023-04-19T01:34:16;18.13;;;9.57;;
25073;SDS011;13066;52.042;5.648;2023-04-19T01:36:44;14.80;;;9.52;;
25073;SDS011;13066;52.042;5.648;2023-04-19T01:39:13;12.70;;;9.00;;
25073;SDS011;13066;52.042;5.648;2023-04-19T01:41:42;13.73;;;9.45;;
25073;SDS011;13066;52.042;5.648;2023-04-19T01:44:11;15.32;;;10.18;;
25073;SDS011;13066;52.042;5.648;2023-04-19T01:46:39;18.15;;;10.15;;
25073;SDS011;13066;52.042;5.648;2023-04-19T01:49:08;16.30;;;9.60;;
25073;SDS011;13066;52.042;5.648;2023-04-19T01:51:36;15.90;;;9.68;;
25073;SDS011;13066;52.042;5.648;2023-04-19T01:54:05;15.50;;;9.25;;
25073;SDS011;13066;52.042;5.648;2023-04-19T01:56:32;16.98;;;9.73;;
25073;SDS011;13066;52.042;5.648;2023-04-19T01:59:02;14.77;;;9.32;;
25073;SDS011;13066;52.042;5.648;2023-04-19T02:01:30;17.05;;;9.25;;
25073;SDS011;13066;52.042;5.648;2023-04-19T02:03:58;15.82;;;9.07;;
25073;SDS011;13066;52.042;5.648;2023-04-19T02:06:27;13.95;;;9.75;;
25073;SDS011;13066;52.042;5.648;2023-04-19T02:08:55;16.38;;;9.18;;
25073;SDS011;13066;52.042;5.648;2023-04-19T02:11:24;17.38;;;9.52;;
25073;SDS011;13066;52.042;5.648;2023-04-19T02:13:53;14.15;;;9.32;;
25073;SDS011;13066;52.042;5.648;2023-04-19T02:16:22;13.27;;;9.00;;
25073;SDS011;13066;52.042;5.648;2023-04-19T02:18:50;14.70;;;9.30;;
25073;SDS011;13066;52.042;5.648;2023-04-19T02:21:18;15.93;;;9.40;;
25073;SDS011;13066;52.042;5.648;2023-04-19T02:23:46;14.45;;;9.57;;
25073;SDS011;13066;52.042;5.648;2023-04-19T02:26:14;15.57;;;9.52;;
25073;SDS011;13066;52.042;5.648;2023-04-19T02:28:42;14.60;;;9.40;;
25073;SDS011;13066;52.042;5.648;2023-04-19T02:31:11;13.80;;;9.77;;
25073;SDS011;13066;52.042;5.648;2023-04-19T02:33:40;12.90;;;8.63;;
25073;SDS011;13066;52.042;5.648;2023-04-19T02:36:09;15.20;;;9.32;;
25073;SDS011;13066;52.042;5.648;2023-04-19T02:38:37;15.38;;;9.80;;
25073;SDS011;13066;52.042;5.648;2023-04-19T02:41:05;15.60;;;9.25;;
25073;SDS011;13066;52.042;5.648;2023-04-19T02:43:37;14.90;;;9.30;;
25073;SDS011;13066;52.042;5.648;2023-04-19T02:46:05;14.52;;;9.40;;
25073;SDS011;13066;52.042;5.648;2023-04-19T02:48:33;15.07;;;9.77;;
25073;SDS011;13066;52.042;5.648;2023-04-19T02:51:03;17.48;;;9.43;;
25073;SDS011;13066;52.042;5.648;2023-04-19T02:53:31;13.98;;;8.98;;
25073;SDS011;13066;52.042;5.648;2023-04-19T02:55:59;14.23;;;9.05;;
25073;SDS011;13066;52.042;5.648;2023-04-19T02:58:28;12.93;;;8.25;;
25073;SDS011;13066;52.042;5.648;2023-04-19T03:01:03;16.95;;;9.57;;
25073;SDS011;13066;52.042;5.648;2023-04-19T03:03:31;16.48;;;9.57;;
25073;SDS011;13066;52.042;5.648;2023-04-19T03:05:59;13.63;;;8.77;;
25073;SDS011;13066;52.042;5.648;2023-04-19T03:08:29;17.13;;;8.93;;
25073;SDS011;13066;52.042;5.648;2023-04-19T03:10:58;13.13;;;9.30;;
25073;SDS011;13066;52.042;5.648;2023-04-19T03:13:28;11.68;;;8.15;;
25073;SDS011;13066;52.042;5.648;2023-04-19T03:15:56;16.27;;;9.48;;
25073;SDS011;13066;52.042;5.648;2023-04-19T03:18:25;12.95;;;8.32;;
25073;SDS011;13066;52.042;5.648;2023-04-19T03:20:55;12.52;;;8.57;;
25073;SDS011;13066;52.042;5.648;2023-04-19T03:23:25;12.35;;;8.02;;
25073;SDS011;13066;52.042;5.648;2023-04-19T03:25:56;15.70;;;7.95;;
25073;SDS011;13066;52.042;5.648;2023-04-19T03:28:34;11.68;;;7.35;;
25073;SDS011;13066;52.042;5.648;2023-04-19T03:31:20;11.52;;;7.47;;
25073;SDS011;13066;52.042;5.648;2023-04-19T03:33:50;13.68;;;7.95;;
25073;SDS011;13066;52.042;5.648;2023-04-19T03:36:23;12.73;;;7.75;;
25073;SDS011;13066;52.042;5.648;2023-04-19T03:38:52;16.25;;;7.93;;
25073;SDS011;13066;52.042;5.648;2023-04-19T03:41:23;11.73;;;7.20;;
25073;SDS011;13066;52.042;5.648;2023-04-19T03:44:08;11.98;;;7.25;;
25073;SDS011;13066;52.042;5.648;2023-04-19T03:46:40;12.32;;;7.28;;
25073;SDS011;13066;52.042;5.648;2023-04-19T03:49:08;10.60;;;7.22;;
25073;SDS011;13066;52.042;5.648;2023-04-19T03:51:37;13.02;;;7.40;;
25073;SDS011;13066;52.042;5.648;2023-04-19T03:54:06;14.48;;;7.55;;
25073;SDS011;13066;52.042;5.648;2023-04-19T03:56:35;9.93;;;7.07;;
25073;SDS011;13066;52.042;5.648;2023-04-19T03:59:03;11.45;;;8.05;;
25073;SDS011;13066;52.042;5.648;2023-04-19T04:01:33;13.23;;;7.30;;
25073;SDS011;13066;52.042;5.648;2023-04-19T04:04:07;12.85;;;7.38;;
25073;SDS011;13066;52.042;5.648;2023-04-19T04:06:36;11.27;;;7.22;;
25073;SDS011;13066;52.042;5.648;2023-04-19T04:09:04;15.38;;;7.95;;
25073;SDS011;13066;52.042;5.648;2023-04-19T04:11:32;11.18;;;7.20;;
25073;SDS011;13066;52.042;5.648;2023-04-19T04:14:02;10.75;;;7.28;;
25073;SDS011;13066;52.042;5.648;2023-04-19T04:16:34;12.73;;;6.97;;
25073;SDS011;13066;52.042;5.648;2023-04-19T04:19:02;10.27;;;7.10;;
25073;SDS011;13066;52.042;5.648;2023-04-19T04:21:33;11.98;;;7.53;;
25073;SDS011;13066;52.042;5.648;2023-04-19T04:24:03;11.70;;;7.53;;
25073;SDS011;13066;52.042;5.648;2023-04-19T04:26:52;11.60;;;6.85;;
25073;SDS011;13066;52.042;5.648;2023-04-19T04:29:27;9.45;;;6.70;;
25073;SDS011;13066;52.042;5.648;2023-04-19T04:31:58;11.98;;;7.55;;
25073;SDS011;13066;52.042;5.648;2023-04-19T04:37:06;11.93;;;6.70;;
25073;SDS011;13066;52.042;5.648;2023-04-19T04:39:36;12.73;;;6.63;;
25073;SDS011;13066;52.042;5.648;2023-04-19T04:42:07;11.40;;;7.18;;
25073;SDS011;13066;52.042;5.648;2023-04-19T04:44:36;12.35;;;6.88;;
25073;SDS011;13066;52.042;5.648;2023-04-19T04:47:07;11.27;;;6.05;;
25073;SDS011;13066;52.042;5.648;2023-04-19T04:49:40;12.38;;;6.72;;
25073;SDS011;13066;52.042;5.648;2023-04-19T04:52:09;13.98;;;6.93;;
25073;SDS011;13066;52.042;5.648;2023-04-19T04:57:27;10.40;;;6.37;;
25073;SDS011;13066;52.042;5.648;2023-04-19T04:59:57;13.15;;;6.30;;
25073;SDS011;13066;52.042;5.648;2023-04-19T05:02:30;9.77;;;6.60;;
25073;SDS011;13066;52.042;5.648;2023-04-19T05:04:59;11.93;;;6.88;;
25073;SDS011;13066;52.042;5.648;2023-04-19T05:07:26;9.60;;;6.80;;
25073;SDS011;13066;52.042;5.648;2023-04-19T05:09:57;10.95;;;6.85;;
25073;SDS011;13066;52.042;5.648;2023-04-19T05:12:31;10.35;;;7.28;;
25073;SDS011;13066;52.042;5.648;2023-04-19T05:15:01;9.85;;;6.95;;
25073;SDS011;13066;52.042;5.648;2023-04-19T05:17:30;12.18;;;7.72;;
25073;SDS011;13066;52.042;5.648;2023-04-19T05:19:58;13.00;;;7.43;;
25073;SDS011;13066;52.042;5.648;2023-04-19T05:22:26;12.60;;;6.88;;
25073;SDS011;13066;52.042;5.648;2023-04-19T05:24:54;13.65;;;8.00;;
25073;SDS011;13066;52.042;5.648;2023-04-19T05:27:22;10.85;;;6.95;;
25073;SDS011;13066;52.042;5.648;2023-04-19T05:29:50;11.70;;;8.15;;
25073;SDS011;13066;52.042;5.648;2023-04-19T05:32:21;11.80;;;7.93;;
25073;SDS011;13066;52.042;5.648;2023-04-19T05:34:53;16.70;;;7.22;;
25073;SDS011;13066;52.042;5.648;2023-04-19T05:37:21;11.93;;;6.65;;
25073;SDS011;13066;52.042;5.648;2023-04-19T05:39:50;11.95;;;7.28;;
25073;SDS011;13066;52.042;5.648;2023-04-19T05:42:18;10.00;;;6.93;;
25073;SDS011;13066;52.042;5.648;2023-04-19T05:44:46;8.88;;;6.45;;
25073;SDS011;13066;52.042;5.648;2023-04-19T05:47:15;10.32;;;6.60;;
25073;SDS011;13066;52.042;5.648;2023-04-19T05:50:04;10.52;;;7.00;;
25073;SDS011;13066;52.042;5.648;2023-04-19T05:52:36;12.55;;;6.55;;
25073;SDS011;13066;52.042;5.648;2023-04-19T05:55:04;9.45;;;6.47;;
25073;SDS011;13066;52.042;5.648;2023-04-19T05:57:33;10.48;;;6.60;;
25073;SDS011;13066;52.042;5.648;2023-04-19T06:00:01;10.57;;;6.03;;
25073;SDS011;13066;52.042;5.648;2023-04-19T06:02:46;12.25;;;6.38;;
25073;SDS011;13066;52.042;5.648;2023-04-19T06:05:16;11.48;;;6.20;;
25073;SDS011;13066;52.042;5.648;2023-04-19T06:07:44;9.23;;;5.65;;
25073;SDS011;13066;52.042;5.648;2023-04-19T06:10:25;11.05;;;6.28;;
25073;SDS011;13066;52.042;5.648;2023-04-19T06:13:13;8.25;;;5.63;;
25073;SDS011;13066;52.042;5.648;2023-04-19T06:15:41;11.05;;;5.63;;
25073;SDS011;13066;52.042;5.648;2023-04-19T06:18:09;8.63;;;5.75;;
25073;SDS011;13066;52.042;5.648;2023-04-19T06:20:48;11.50;;;6.32;;
25073;SDS011;13066;52.042;5.648;2023-04-19T06:23:15;8.38;;;5.75;;
25073;SDS011;13066;52.042;5.648;2023-04-19T06:25:44;12.48;;;5.03;;
25073;SDS011;13066;52.042;5.648;2023-04-19T06:28:14;10.95;;;5.60;;
25073;SDS011;13066;52.042;5.648;2023-04-19T06:30:42;13.85;;;5.40;;
25073;SDS011;13066;52.042;5.648;2023-04-19T06:33:10;7.90;;;4.93;;
25073;SDS011;13066;52.042;5.648;2023-04-19T06:35:38;9.85;;;4.97;;
25073;SDS011;13066;52.042;5.648;2023-04-19T06:38:08;8.30;;;4.60;;
25073;SDS011;13066;52.042;5.648;2023-04-19T06:40:35;7.38;;;4.78;;
25073;SDS011;13066;52.042;5.648;2023-04-19T06:43:04;7.47;;;4.30;;
25073;SDS011;13066;52.042;5.648;2023-04-19T06:45:32;8.55;;;4.78;;
25073;SDS011;13066;52.042;5.648;2023-04-19T06:48:00;8.60;;;4.85;;
25073;SDS011;13066;52.042;5.648;2023-04-19T06:50:28;8.48;;;4.60;;
25073;SDS011;13066;52.042;5.648;2023-04-19T06:52:56;9.40;;;4.35;;
25073;SDS011;13066;52.042;5.648;2023-04-19T06:55:26;7.68;;;4.00;;
25073;SDS011;13066;52.042;5.648;2023-04-19T06:57:54;7.53;;;4.78;;
25073;SDS011;13066;52.042;5.648;2023-04-19T07:00:22;9.48;;;4.63;;
25073;SDS011;13066;52.042;5.648;2023-04-19T07:02:50;10.43;;;4.03;;
25073;SDS011;13066;52.042;5.648;2023-04-19T07:05:19;9.00;;;4.15;;
25073;SDS011;13066;52.042;5.648;2023-04-19T07:07:47;7.80;;;3.90;;
25073;SDS011;13066;52.042;5.648;2023-04-19T07:10:15;7.43;;;3.90;;
25073;SDS011;13066;52.042;5.648;2023-04-19T07:12:44;5.20;;;3.70;;
25073;SDS011;13066;52.042;5.648;2023-04-19T07:15:12;6.20;;;3.60;;
25073;SDS011;13066;52.042;5.648;2023-04-19T07:17:40;11.88;;;3.63;;
25073;SDS011;13066;52.042;5.648;2023-04-19T07:20:08;6.60;;;3.55;;
25073;SDS011;13066;52.042;5.648;2023-04-19T07:22:37;7.13;;;3.60;;
25073;SDS011;13066;52.042;5.648;2023-04-19T07:25:05;7.65;;;3.47;;
25073;SDS011;13066;52.042;5.648;2023-04-19T07:27:34;10.13;;;3.63;;
25073;SDS011;13066;52.042;5.648;2023-04-19T07:30:04;4.95;;;3.47;;
25073;SDS011;13066;52.042;5.648;2023-04-19T07:32:33;5.47;;;3.25;;
25073;SDS011;13066;52.042;5.648;2023-04-19T07:35:01;5.80;;;3.50;;
25073;SDS011;13066;52.042;5.648;2023-04-19T07:37:29;10.85;;;3.22;;
25073;SDS011;13066;52.042;5.648;2023-04-19T07:39:57;6.18;;;3.60;;
25073;SDS011;13066;52.042;5.648;2023-04-19T07:42:25;4.55;;;2.97;;
25073;SDS011;13066;52.042;5.648;2023-04-19T07:44:56;5.05;;;3.20;;
25073;SDS011;13066;52.042;5.648;2023-04-19T07:47:26;5.80;;;2.85;;
25073;SDS011;13066;52.042;5.648;2023-04-19T07:49:54;14.65;;;3.38;;
25073;SDS011;13066;52.042;5.648;2023-04-19T07:52:22;6.38;;;3.15;;
25073;SDS011;13066;52.042;5.648;2023-04-19T07:54:50;4.93;;;2.95;;
25073;SDS011;13066;52.042;5.648;2023-04-19T07:57:18;5.68;;;2.70;;
25073;SDS011;13066;52.042;5.648;2023-04-19T07:59:46;5.07;;;2.67;;
25073;SDS011;13066;52.042;5.648;2023-04-19T08:02:14;7.05;;;3.58;;
25073;SDS011;13066;52.042;5.648;2023-04-19T08:04:46;6.07;;;3.00;;
25073;SDS011;13066;52.042;5.648;2023-04-19T08:07:15;6.78;;;2.90;;
25073;SDS011;13066;52.042;5.648;2023-04-19T08:09:43;6.60;;;3.15;;
25073;SDS011;13066;52.042;5.648;2023-04-19T08:12:11;5.95;;;3.00;;
25073;SDS011;13066;52.042;5.648;2023-04-19T08:14:58;4.63;;;2.53;;
25073;SDS011;13066;52.042;5.648;2023-04-19T08:17:45;7.85;;;2.67;;
25073;SDS011;13066;52.042;5.648;2023-04-19T08:20:15;5.20;;;2.80;;
25073;SDS011;13066;52.042;5.648;2023-04-19T08:22:43;6.55;;;2.85;;
25073;SDS011;13066;52.042;5.648;2023-04-19T08:25:11;7.70;;;2.58;;
25073;SDS011;13066;52.042;5.648;2023-04-19T08:27:39;5.65;;;2.53;;
25073;SDS011;13066;52.042;5.648;2023-04-19T08:30:07;4.57;;;2.38;;
25073;SDS011;13066;52.042;5.648;2023-04-19T08:32:36;6.80;;;2.50;;
25073;SDS011;13066;52.042;5.648;2023-04-19T08:35:05;4.35;;;2.13;;
25073;SDS011;13066;52.042;5.648;2023-04-19T08:37:35;6.03;;;2.70;;
25073;SDS011;13066;52.042;5.648;2023-04-19T08:40:03;4.95;;;2.28;;
25073;SDS011;13066;52.042;5.648;2023-04-19T08:42:32;3.58;;;1.85;;
25073;SDS011;13066;52.042;5.648;2023-04-19T08:45:03;3.05;;;1.98;;
25073;SDS011;13066;52.042;5.648;2023-04-19T08:47:36;5.00;;;1.73;;
25073;SDS011;13066;52.042;5.648;2023-04-19T08:50:22;5.57;;;1.67;;
25073;SDS011;13066;52.042;5.648;2023-04-19T08:53:01;4.65;;;1.90;;
25073;SDS011;13066;52.042;5.648;2023-04-19T08:55:32;5.78;;;2.00;;
25073;SDS011;13066;52.042;5.648;2023-04-19T08:58:00;5.60;;;2.00;;
25073;SDS011;13066;52.042;5.648;2023-04-19T09:00:37;3.13;;;1.70;;
25073;SDS011;13066;52.042;5.648;2023-04-19T09:03:06;6.75;;;2.05;;
25073;SDS011;13066;52.042;5.648;2023-04-19T09:05:35;3.67;;;1.42;;
25073;SDS011;13066;52.042;5.648;2023-04-19T09:08:25;2.55;;;1.50;;
25073;SDS011;13066;52.042;5.648;2023-04-19T09:10:54;3.45;;;1.52;;
25073;SDS011;13066;52.042;5.648;2023-04-19T09:13:22;5.07;;;1.55;;
25073;SDS011;13066;52.042;5.648;2023-04-19T09:15:51;3.25;;;1.88;;
25073;SDS011;13066;52.042;5.648;2023-04-19T09:18:20;2.22;;;1.40;;
25073;SDS011;13066;52.042;5.648;2023-04-19T09:20:48;3.30;;;1.80;;
25073;SDS011;13066;52.042;5.648;2023-04-19T09:23:16;1.88;;;1.50;;
25073;SDS011;13066;52.042;5.648;2023-04-19T09:25:51;4.35;;;1.30;;
25073;SDS011;13066;52.042;5.648;2023-04-19T09:28:40;1.73;;;1.50;;
25073;SDS011;13066;52.042;5.648;2023-04-19T09:31:22;3.60;;;1.30;;
25073;SDS011;13066;52.042;5.648;2023-04-19T09:34:11;5.70;;;2.03;;
25073;SDS011;13066;52.042;5.648;2023-04-19T09:36:40;4.57;;;1.73;;
25073;SDS011;13066;52.042;5.648;2023-04-19T09:39:08;5.82;;;1.85;;
25073;SDS011;13066;52.042;5.648;2023-04-19T09:41:50;7.70;;;1.75;;
25073;SDS011;13066;52.042;5.648;2023-04-19T09:44:19;3.95;;;1.50;;
25073;SDS011;13066;52.042;5.648;2023-04-19T09:47:20;4.38;;;1.98;;
25073;SDS011;13066;52.042;5.648;2023-04-19T09:50:02;2.58;;;1.98;;
25073;SDS011;13066;52.042;5.648;2023-04-19T09:52:48;5.50;;;1.70;;
25073;SDS011;13066;52.042;5.648;2023-04-19T09:55:16;4.25;;;2.00;;
25073;SDS011;13066;52.042;5.648;2023-04-19T09:57:50;4.50;;;1.60;;
25073;SDS011;13066;52.042;5.648;2023-04-19T10:00:19;2.75;;;1.75;;
25073;SDS011;13066;52.042;5.648;2023-04-19T10:02:50;3.80;;;1.90;;
25073;SDS011;13066;52.042;5.648;2023-04-19T10:05:24;6.85;;;2.00;;
25073;SDS011;13066;52.042;5.648;2023-04-19T10:07:52;2.97;;;1.80;;
25073;SDS011;13066;52.042;5.648;2023-04-19T10:10:25;3.58;;;1.98;;
25073;SDS011;13066;52.042;5.648;2023-04-19T10:13:09;2.15;;;1.52;;
25073;SDS011;13066;52.042;5.648;2023-04-19T10:15:46;3.72;;;1.73;;
25073;SDS011;13066;52.042;5.648;2023-04-19T10:18:20;2.65;;;1.73;;
25073;SDS011;13066;52.042;5.648;2023-04-19T10:20:50;2.15;;;1.55;;
25073;SDS011;13066;52.042;5.648;2023-04-19T10:23:20;2.40;;;1.70;;
25073;SDS011;13066;52.042;5.648;2023-04-19T10:25:53;5.57;;;1.70;;
25073;SDS011;13066;52.042;5.648;2023-04-19T10:28:23;5.20;;;1.77;;
25073;SDS011;13066;52.042;5.648;2023-04-19T10:30:52;4.30;;;1.88;;
25073;SDS011;13066;52.042;5.648;2023-04-19T10:33:25;3.42;;;1.75;;
25073;SDS011;13066;52.042;5.648;2023-04-19T10:35:55;6.13;;;1.55;;
25073;SDS011;13066;52.042;5.648;2023-04-19T10:41:09;3.05;;;1.83;;
25073;SDS011;13066;52.042;5.648;2023-04-19T10:43:45;2.20;;;1.50;;
25073;SDS011;13066;52.042;5.648;2023-04-19T10:46:14;7.82;;;1.92;;
25073;SDS011;13066;52.042;5.648;2023-04-19T10:48:50;4.63;;;1.77;;
25073;SDS011;13066;52.042;5.648;2023-04-19T10:51:25;2.80;;;1.77;;
25073;SDS011;13066;52.042;5.648;2023-04-19T10:53:54;4.07;;;1.70;;
25073;SDS011;13066;52.042;5.648;2023-04-19T10:59:27;2.95;;;1.85;;
25073;SDS011;13066;52.042;5.648;2023-04-19T11:01:56;4.80;;;1.98;;
25073;SDS011;13066;52.042;5.648;2023-04-19T11:07:27;6.15;;;1.90;;
25073;SDS011;13066;52.042;5.648;2023-04-19T11:09:55;7.28;;;1.80;;
25073;SDS011;13066;52.042;5.648;2023-04-19T11:12:23;1.95;;;1.75;;
25073;SDS011;13066;52.042;5.648;2023-04-19T11:14:52;3.78;;;1.90;;
25073;SDS011;13066;52.042;5.648;2023-04-19T11:17:24;5.60;;;1.98;;
25073;SDS011;13066;52.042;5.648;2023-04-19T11:19:54;3.05;;;1.70;;
25073;SDS011;13066;52.042;5.648;2023-04-19T11:22:23;5.15;;;2.10;;
25073;SDS011;13066;52.042;5.648;2023-04-19T11:24:53;6.13;;;2.05;;
25073;SDS011;13066;52.042;5.648;2023-04-19T11:27:21;5.40;;;1.63;;
25073;SDS011;13066;52.042;5.648;2023-04-19T11:29:49;6.32;;;2.00;;
25073;SDS011;13066;52.042;5.648;2023-04-19T11:32:21;2.85;;;1.92;;
25073;SDS011;13066;52.042;5.648;2023-04-19T11:34:49;3.70;;;2.13;;
25073;SDS011;13066;52.042;5.648;2023-04-19T11:37:17;12.75;;;2.40;;
25073;SDS011;13066;52.042;5.648;2023-04-19T11:39:45;4.00;;;2.10;;
25073;SDS011;13066;52.042;5.648;2023-04-19T11:42:17;3.58;;;2.40;;
25073;SDS011;13066;52.042;5.648;2023-04-19T11:44:49;4.22;;;2.22;;
25073;SDS011;13066;52.042;5.648;2023-04-19T11:47:18;6.22;;;2.00;;
25073;SDS011;13066;52.042;5.648;2023-04-19T11:49:47;5.72;;;2.40;;
25073;SDS011;13066;52.042;5.648;2023-04-19T11:52:19;4.05;;;2.10;;
25073;SDS011;13066;52.042;5.648;2023-04-19T11:54:49;4.45;;;2.10;;
25073;SDS011;13066;52.042;5.648;2023-04-19T11:57:26;6.78;;;2.40;;
25073;SDS011;13066;52.042;5.648;2023-04-19T12:00:01;3.85;;;2.05;;
25073;SDS011;13066;52.042;5.648;2023-04-19T12:05:11;5.20;;;2.20;;
25073;SDS011;13066;52.042;5.648;2023-04-19T12:08:02;6.78;;;2.40;;
25073;SDS011;13066;52.042;5.648;2023-04-19T12:10:31;4.93;;;2.25;;
25073;SDS011;13066;52.042;5.648;2023-04-19T12:12:59;4.82;;;2.38;;
25073;SDS011;13066;52.042;5.648;2023-04-19T12:15:39;6.40;;;2.38;;
25073;SDS011;13066;52.042;5.648;2023-04-19T12:18:08;3.50;;;2.25;;
25073;SDS011;13066;52.042;5.648;2023-04-19T12:20:42;6.10;;;2.35;;
25073;SDS011;13066;52.042;5.648;2023-04-19T12:23:11;6.68;;;2.35;;
25073;SDS011;13066;52.042;5.648;2023-04-19T12:25:41;3.63;;;2.42;;
25073;SDS011;13066;52.042;5.648;2023-04-19T12:28:10;4.25;;;2.33;;
25073;SDS011;13066;52.042;5.648;2023-04-19T12:30:38;7.30;;;2.30;;
25073;SDS011;13066;52.042;5.648;2023-04-19T12:33:07;4.80;;;2.40;;
25073;SDS011;13066;52.042;5.648;2023-04-19T12:35:35;9.45;;;2.60;;
25073;SDS011;13066;52.042;5.648;2023-04-19T12:38:06;4.80;;;2.63;;
25073;SDS011;13066;52.042;5.648;2023-04-19T12:40:34;6.22;;;2.08;;
25073;SDS011;13066;52.042;5.648;2023-04-19T12:43:04;5.60;;;2.38;;
25073;SDS011;13066;52.042;5.648;2023-04-19T12:45:33;5.05;;;2.58;;
25073;SDS011;13066;52.042;5.648;2023-04-19T12:48:01;5.05;;;2.80;;
25073;SDS011;13066;52.042;5.648;2023-04-19T12:50:29;4.13;;;2.60;;
25073;SDS011;13066;52.042;5.648;2023-04-19T12:52:57;10.00;;;2.40;;
25073;SDS011;13066;52.042;5.648;2023-04-19T12:55:27;10.15;;;2.33;;
25073;SDS011;13066;52.042;5.648;2023-04-19T12:57:55;3.35;;;2.20;;
25073;SDS011;13066;52.042;5.648;2023-04-19T13:00:23;4.10;;;2.38;;
25073;SDS011;13066;52.042;5.648;2023-04-19T13:02:51;5.35;;;2.50;;
25073;SDS011;13066;52.042;5.648;2023-04-19T13:05:20;4.07;;;2.50;;
25073;SDS011;13066;52.042;5.648;2023-04-19T13:07:48;2.60;;;2.30;;
25073;SDS011;13066;52.042;5.648;2023-04-19T13:10:16;3.63;;;2.47;;
25073;SDS011;13066;52.042;5.648;2023-04-19T13:12:46;3.40;;;2.45;;
25073;SDS011;13066;52.042;5.648;2023-04-19T13:15:14;6.32;;;2.30;;
25073;SDS011;13066;52.042;5.648;2023-04-19T13:17:42;4.35;;;2.53;;
25073;SDS011;13066;52.042;5.648;2023-04-19T13:20:11;7.70;;;2.78;;
25073;SDS011;13066;52.042;5.648;2023-04-19T13:22:39;8.07;;;2.85;;
25073;SDS011;13066;52.042;5.648;2023-04-19T13:25:08;4.57;;;2.90;;
25073;SDS011;13066;52.042;5.648;2023-04-19T13:27:36;6.93;;;2.72;;
25073;SDS011;13066;52.042;5.648;2023-04-19T13:30:06;5.38;;;2.22;;
25073;SDS011;13066;52.042;5.648;2023-04-19T13:32:35;4.38;;;2.47;;
25073;SDS011;13066;52.042;5.648;2023-04-19T13:35:04;6.80;;;2.35;;
25073;SDS011;13066;52.042;5.648;2023-04-19T13:37:32;4.95;;;2.50;;
25073;SDS011;13066;52.042;5.648;2023-04-19T13:40:00;5.35;;;2.63;;
25073;SDS011;13066;52.042;5.648;2023-04-19T13:42:44;5.43;;;2.30;;
25073;SDS011;13066;52.042;5.648;2023-04-19T13:45:14;4.22;;;2.30;;
25073;SDS011;13066;52.042;5.648;2023-04-19T13:47:42;3.70;;;2.13;;
25073;SDS011;13066;52.042;5.648;2023-04-19T13:50:11;3.15;;;2.13;;
25073;SDS011;13066;52.042;5.648;2023-04-19T13:52:40;6.07;;;2.40;;
25073;SDS011;13066;52.042;5.648;2023-04-19T13:55:08;7.85;;;2.30;;
25073;SDS011;13066;52.042;5.648;2023-04-19T13:57:36;5.40;;;2.10;;
25073;SDS011;13066;52.042;5.648;2023-04-19T14:00:05;5.85;;;2.10;;
25073;SDS011;13066;52.042;5.648;2023-04-19T14:02:35;7.45;;;1.98;;
25073;SDS011;13066;52.042;5.648;2023-04-19T14:05:04;4.78;;;2.15;;
25073;SDS011;13066;52.042;5.648;2023-04-19T14:07:33;3.55;;;1.98;;
25073;SDS011;13066;52.042;5.648;2023-04-19T14:10:01;5.55;;;1.90;;
25073;SDS011;13066;52.042;5.648;2023-04-19T14:12:29;5.00;;;2.08;;
25073;SDS011;13066;52.042;5.648;2023-04-19T14:14:57;2.35;;;1.80;;
25073;SDS011;13066;52.042;5.648;2023-04-19T14:17:25;7.78;;;1.95;;
25073;SDS011;13066;52.042;5.648;2023-04-19T14:19:55;2.80;;;1.85;;
25073;SDS011;13066;52.042;5.648;2023-04-19T14:22:23;5.00;;;2.00;;
25073;SDS011;13066;52.042;5.648;2023-04-19T14:24:51;5.40;;;2.10;;
25073;SDS011;13066;52.042;5.648;2023-04-19T14:27:19;4.88;;;2.70;;
25073;SDS011;13066;52.042;5.648;2023-04-19T14:29:47;4.55;;;1.90;;
25073;SDS011;13066;52.042;5.648;2023-04-19T14:32:15;5.18;;;2.30;;
25073;SDS011;13066;52.042;5.648;2023-04-19T14:34:52;7.45;;;2.20;;
25073;SDS011;13066;52.042;5.648;2023-04-19T14:37:22;5.57;;;2.33;;
25073;SDS011;13066;52.042;5.648;2023-04-19T14:39:50;6.75;;;2.35;;
25073;SDS011;13066;52.042;5.648;2023-04-19T14:42:19;4.55;;;2.42;;
25073;SDS011;13066;52.042;5.648;2023-04-19T14:44:49;6.70;;;2.10;;
25073;SDS011;13066;52.042;5.648;2023-04-19T14:47:18;7.63;;;2.30;;
25073;SDS011;13066;52.042;5.648;2023-04-19T14:49:46;3.10;;;2.20;;
25073;SDS011;13066;52.042;5.648;2023-04-19T14:52:14;6.88;;;2.38;;
25073;SDS011;13066;52.042;5.648;2023-04-19T14:54:44;8.68;;;4.05;;
25073;SDS011;13066;52.042;5.648;2023-04-19T14:57:12;8.20;;;2.67;;
25073;SDS011;13066;52.042;5.648;2023-04-19T14:59:40;4.38;;;2.55;;
25073;SDS011;13066;52.042;5.648;2023-04-19T15:02:08;3.33;;;2.38;;
25073;SDS011;13066;52.042;5.648;2023-04-19T15:04:39;3.75;;;2.63;;
25073;SDS011;13066;52.042;5.648;2023-04-19T15:07:09;5.72;;;2.50;;
25073;SDS011;13066;52.042;5.648;2023-04-19T15:09:37;5.60;;;2.58;;
25073;SDS011;13066;52.042;5.648;2023-04-19T15:12:07;4.80;;;2.60;;
25073;SDS011;13066;52.042;5.648;2023-04-19T15:14:35;4.90;;;2.53;;
25073;SDS011;13066;52.042;5.648;2023-04-19T15:17:03;6.35;;;3.20;;